Whiting Field Naval Air Station South Airport Milton US
ICAO: KNDZ
IATA: NDZ
Category: Medium
Scheduled Services: No

Elevation: 177 ft
TransAlt. 18000 ft.

Airport Communications:
PENSACOLA APP/DEP:124.85
ATIS:27.357
CLNC DEL:35.56
GND:34.68
BASE OPS:23.37
PMSV METRO:31.695
TWR:121.4

KNDZ Zoom In..

If you have problems with the map follow the link
https://www.worldairports.se/pages/airport.php?
ICAO=KNDZ

Runways:

(A) RW 05 length 5997 ft width 200 ft
---- / hdg 49

(B) RW 14 length 6001 ft width 200 ft
---- / hdg 139

(C) RW 23 length 5997 ft width 200 ft
---- / hdg 229

(D) RW 32 length 6001 ft width 200 ft
ILS 110.55 / hdg 319

Location; KNDZ
Day. 10 / Time. 01.56 Zulu
* Altimeter: 30.02
* Temperature: 20° c. 68°f.
* Wind from: 170° Speed 05 kn.
Dewpoint: 19° c.
Visibility: 10 Statute Miles.
Clouds: Broken 2000 ft.
Clouds: Overcast 3300 ft.

KNDZ 100156Z 17005KT 10SM BKN020 OVC033 20/19 A3002 RMK SLP153 T02000189


Wind From 170°
Speed 05 kn.

 
 
jpsmedia worldairports.se 2019   terms of use